createdAt,value
2019-05-05T00:00:51.981Z,6.58
2019-05-05T00:03:36.900Z,6.37
2019-05-05T00:06:06.848Z,6.22
2019-05-05T00:08:35.251Z,5.97
2019-05-05T00:11:05.256Z,5.45
2019-05-05T00:13:35.139Z,5.95
2019-05-05T00:16:15.175Z,5.50
2019-05-05T00:18:44.796Z,5.97
2019-05-05T00:21:15.057Z,5.83
2019-05-05T00:23:45.117Z,6.25
2019-05-05T00:26:14.897Z,5.22
2019-05-05T00:28:44.790Z,6.17
2019-05-05T00:31:15.038Z,6.00
2019-05-05T00:33:44.874Z,5.20
2019-05-05T00:36:14.547Z,5.28
2019-05-05T00:38:44.507Z,5.87
2019-05-05T00:41:14.834Z,5.67
2019-05-05T00:43:44.960Z,5.20
2019-05-05T00:46:17.320Z,5.65
2019-05-05T00:48:48.396Z,5.10
2019-05-05T00:51:16.655Z,6.30
2019-05-05T00:53:45.084Z,5.72
2019-05-05T00:56:14.415Z,5.58
2019-05-05T00:58:44.695Z,5.08
2019-05-05T01:01:30.734Z,5.70
2019-05-05T01:04:00.668Z,5.40
2019-05-05T01:06:30.585Z,5.95
2019-05-05T01:08:58.873Z,5.20
2019-05-05T01:11:27.336Z,5.60
2019-05-05T01:13:55.897Z,5.72
2019-05-05T01:16:24.839Z,5.40
2019-05-05T01:18:55.180Z,5.62
2019-05-05T01:21:24.459Z,5.25
2019-05-05T01:23:54.647Z,5.25
2019-05-05T01:26:24.854Z,5.30
2019-05-05T01:28:52.911Z,5.45
2019-05-05T01:31:21.958Z,5.25
2019-05-05T01:34:04.825Z,5.28
2019-05-05T01:36:34.580Z,5.75
2019-05-05T01:39:20.286Z,4.75
2019-05-05T01:41:54.310Z,5.25
2019-05-05T01:44:24.547Z,5.10
2019-05-05T01:46:52.654Z,4.90
2019-05-05T01:49:20.953Z,4.95
2019-05-05T01:51:49.233Z,5.00
2019-05-05T01:54:17.538Z,4.90
2019-05-05T01:56:45.804Z,4.83
2019-05-05T01:59:14.476Z,5.28
2019-05-05T02:01:44.556Z,4.33
2019-05-05T02:04:14.454Z,4.75
2019-05-05T02:06:44.335Z,5.22
2019-05-05T02:09:12.769Z,4.90
2019-05-05T02:11:41.044Z,5.25
2019-05-05T02:14:09.334Z,4.65
2019-05-05T02:16:37.611Z,4.40
2019-05-05T02:19:05.965Z,5.40
2019-05-05T02:21:35.322Z,5.30
2019-05-05T02:24:05.247Z,5.08
2019-05-05T02:26:34.983Z,4.58
2019-05-05T02:29:17.461Z,4.83
2019-05-05T02:32:06.211Z,4.72
2019-05-05T02:34:35.993Z,5.03
2019-05-05T02:37:05.444Z,4.08
2019-05-05T02:39:35.344Z,4.90
2019-05-05T02:42:05.770Z,4.70
2019-05-05T02:44:34.782Z,4.80
2019-05-05T02:47:15.493Z,5.20
2019-05-05T02:49:45.399Z,4.53
2019-05-05T02:52:15.151Z,4.58
2019-05-05T02:54:44.245Z,4.80
2019-05-05T02:57:13.580Z,4.65
2019-05-05T02:59:46.240Z,4.72
2019-05-05T03:02:19.126Z,4.55
2019-05-05T03:07:16.485Z,4.40
2019-05-05T03:09:45.732Z,4.17
2019-05-05T03:12:15.602Z,5.00
2019-05-05T03:14:45.040Z,4.50
2019-05-05T03:17:14.478Z,4.28
2019-05-05T03:19:44.425Z,4.67
2019-05-05T03:22:14.310Z,4.70
2019-05-05T03:24:44.615Z,4.58
2019-05-05T03:27:14.369Z,5.30
2019-05-05T03:29:44.233Z,5.03
2019-05-05T03:32:16.164Z,5.05
2019-05-05T03:34:44.509Z,5.05
2019-05-05T03:37:14.651Z,4.83
2019-05-05T03:39:44.691Z,5.45
2019-05-05T03:42:14.631Z,5.15
2019-05-05T03:44:56.355Z,5.47
2019-05-05T03:47:25.039Z,5.15
2019-05-05T03:49:53.645Z,5.50
2019-05-05T03:52:24.418Z,5.47
2019-05-05T03:54:54.176Z,6.05
2019-05-05T03:57:24.531Z,5.60
2019-05-05T03:59:54.789Z,6.05
2019-05-05T04:02:24.577Z,6.28
2019-05-05T04:04:55.105Z,6.22
2019-05-05T04:07:24.243Z,6.87
2019-05-05T04:09:54.234Z,6.70
2019-05-05T04:12:24.169Z,6.58
2019-05-05T04:14:54.609Z,6.12
2019-05-05T04:17:27.692Z,6.62
2019-05-05T04:22:25.183Z,6.50
2019-05-05T04:24:54.248Z,6.55
2019-05-05T04:27:23.910Z,6.65
2019-05-05T04:29:54.288Z,6.00
2019-05-05T04:32:24.375Z,6.37
2019-05-05T04:34:54.337Z,6.40
2019-05-05T04:37:23.905Z,6.60
2019-05-05T04:39:53.761Z,6.87
2019-05-05T04:42:23.974Z,6.87
2019-05-05T04:44:53.831Z,7.22
2019-05-05T04:47:26.875Z,7.25
2019-05-05T04:52:31.585Z,7.20
2019-05-05T04:54:59.864Z,7.22
2019-05-05T04:57:28.470Z,7.25
2019-05-05T04:59:56.787Z,7.33
2019-05-05T05:02:43.626Z,7.10
2019-05-05T05:05:16.643Z,6.87
2019-05-05T05:10:14.058Z,6.62
2019-05-05T05:12:43.621Z,6.83
2019-05-05T05:15:12.098Z,7.10
2019-05-05T05:17:58.366Z,7.25
2019-05-05T05:20:26.660Z,7.20
2019-05-05T05:22:54.950Z,7.55
2019-05-05T05:25:23.994Z,7.35
2019-05-05T05:27:53.616Z,7.53
2019-05-05T05:30:24.126Z,7.70
2019-05-05T05:32:53.903Z,7.55
2019-05-05T05:35:24.408Z,6.83
2019-05-05T05:37:54.027Z,7.17
2019-05-05T05:40:27.264Z,7.40
2019-05-05T05:42:56.614Z,8.50
2019-05-05T05:45:29.474Z,7.50
2019-05-05T05:50:45.821Z,7.53
2019-05-05T05:53:14.132Z,7.30
2019-05-05T05:55:44.637Z,8.10
2019-05-05T05:58:14.048Z,7.62
2019-05-05T06:00:44.310Z,7.95
2019-05-05T06:03:14.093Z,9.00
2019-05-05T06:05:43.561Z,8.55
2019-05-05T06:08:13.938Z,7.70
2019-05-05T06:10:44.168Z,8.50
2019-05-05T06:13:14.908Z,7.97
2019-05-05T06:15:44.173Z,8.43
2019-05-05T06:18:13.844Z,7.60
2019-05-05T06:20:44.367Z,7.53
2019-05-05T06:23:14.513Z,7.75
2019-05-05T06:25:44.051Z,7.15
2019-05-05T06:28:14.313Z,7.78
2019-05-05T06:30:44.346Z,7.55
2019-05-05T06:33:13.698Z,6.92
2019-05-05T06:35:44.221Z,7.00
2019-05-05T06:38:13.599Z,6.30
2019-05-05T06:40:44.397Z,6.25
2019-05-05T06:43:14.457Z,6.75
2019-05-05T06:45:44.666Z,6.87
2019-05-05T06:48:13.577Z,6.62
2019-05-05T06:50:43.705Z,6.70
2019-05-05T06:53:13.525Z,6.83
2019-05-05T06:55:44.316Z,5.90
2019-05-05T06:58:13.654Z,6.10
2019-05-05T07:00:43.959Z,6.15
2019-05-05T07:03:13.925Z,5.70
2019-05-05T07:05:43.703Z,6.33
2019-05-05T07:08:13.864Z,5.33
2019-05-05T07:10:44.270Z,5.37
2019-05-05T07:13:14.016Z,5.12
2019-05-05T07:15:43.794Z,5.28
2019-05-05T07:18:14.072Z,5.20
2019-05-05T07:20:44.034Z,5.55
2019-05-05T07:23:14.328Z,5.60
2019-05-05T07:25:45.311Z,5.42
2019-05-05T07:28:14.520Z,4.75
2019-05-05T07:30:44.219Z,4.90
2019-05-05T07:33:14.728Z,4.55
2019-05-05T07:35:56.824Z,4.70
2019-05-05T07:38:17.077Z,4.97
2019-05-05T07:40:45.379Z,5.42
2019-05-05T07:43:14.763Z,4.80
2019-05-05T07:45:44.558Z,4.28
2019-05-05T07:48:13.880Z,5.00
2019-05-05T07:50:45.033Z,5.28
2019-05-05T07:53:15.615Z,5.37
2019-05-05T07:55:43.720Z,5.50
2019-05-05T07:58:13.955Z,5.37
2019-05-05T08:00:43.676Z,5.53
2019-05-05T08:03:14.221Z,4.97
2019-05-05T08:05:44.054Z,5.50
2019-05-05T08:08:13.939Z,5.75
2019-05-05T08:10:43.741Z,6.45
2019-05-05T08:13:14.156Z,5.95
2019-05-05T08:15:56.276Z,6.03
2019-05-05T08:18:32.154Z,6.05
2019-05-05T08:21:04.942Z,6.30
2019-05-05T08:26:20.797Z,5.72
2019-05-05T08:28:50.717Z,5.50
2019-05-05T08:31:20.934Z,5.97
2019-05-05T08:33:49.210Z,5.90
2019-05-05T08:36:17.502Z,5.17
2019-05-05T08:38:45.797Z,5.15
2019-05-05T08:41:14.087Z,5.53
2019-05-05T08:43:44.093Z,5.03
2019-05-05T08:46:14.355Z,5.22
2019-05-05T08:48:44.582Z,6.22
2019-05-05T08:51:14.148Z,5.10
2019-05-05T08:53:47.890Z,5.12
2019-05-05T08:56:14.646Z,5.00
2019-05-05T08:58:43.762Z,4.65
2019-05-05T09:01:14.775Z,4.90
2019-05-05T09:03:44.323Z,5.33
2019-05-05T09:06:13.754Z,5.70
2019-05-05T09:08:44.188Z,6.05
2019-05-05T09:11:14.045Z,4.85
2019-05-05T09:13:44.463Z,5.33
2019-05-05T09:16:14.223Z,5.50
2019-05-05T09:18:58.935Z,4.30
2019-05-05T09:21:27.208Z,4.42
2019-05-05T09:24:01.672Z,5.70
2019-05-05T09:26:28.428Z,4.75
2019-05-05T09:29:14.558Z,4.62
2019-05-05T09:31:44.944Z,5.12
2019-05-05T09:34:14.655Z,5.17
2019-05-05T09:36:43.948Z,4.47
2019-05-05T09:39:13.821Z,5.17
2019-05-05T09:41:44.455Z,5.42
2019-05-05T09:44:13.604Z,4.67
2019-05-05T09:46:42.012Z,4.62
2019-05-05T09:49:10.321Z,5.75
2019-05-05T09:51:38.615Z,4.53
2019-05-05T09:54:13.985Z,5.10
2019-05-05T09:56:37.007Z,4.33
2019-05-05T09:59:05.305Z,4.83
2019-05-05T10:01:33.944Z,4.50
2019-05-05T10:04:06.889Z,4.72
2019-05-05T10:06:35.189Z,5.20
2019-05-05T10:09:04.343Z,5.47
2019-05-05T10:11:32.652Z,4.83
2019-05-05T10:14:00.973Z,5.17
2019-05-05T10:16:29.232Z,6.03
2019-05-05T10:18:57.544Z,4.97
2019-05-05T10:21:25.836Z,5.10
2019-05-05T10:23:55.789Z,5.58
2019-05-05T10:26:24.076Z,5.15
2019-05-05T10:28:53.702Z,4.25
2019-05-05T10:31:24.021Z,5.45
2019-05-05T10:33:54.003Z,4.83
2019-05-05T10:36:24.351Z,4.35
2019-05-05T10:38:57.029Z,3.62
2019-05-05T10:41:25.324Z,3.47
2019-05-05T10:43:54.215Z,2.80
2019-05-05T10:46:23.593Z,3.98
2019-05-05T10:48:53.720Z,3.70
2019-05-05T10:51:23.801Z,3.70
2019-05-05T10:53:54.004Z,3.92
2019-05-05T10:56:24.050Z,4.53
2019-05-05T10:58:52.138Z,4.03
2019-05-05T11:01:20.441Z,5.12
2019-05-05T11:03:48.738Z,4.72
2019-05-05T11:06:17.108Z,5.12
2019-05-05T11:08:45.410Z,5.75
2019-05-05T11:11:13.843Z,6.22
2019-05-05T11:13:44.968Z,5.58
2019-05-05T11:16:14.409Z,4.80
2019-05-05T11:18:42.397Z,5.60
2019-05-05T11:21:10.696Z,5.50
2019-05-05T11:23:38.989Z,5.05
2019-05-05T11:26:07.305Z,5.42
2019-05-05T11:28:35.577Z,5.70
2019-05-05T11:31:04.452Z,5.00
2019-05-05T11:33:37.446Z,4.00
2019-05-05T11:38:44.404Z,3.67
2019-05-05T11:41:14.142Z,4.10
2019-05-05T11:43:41.976Z,3.83
2019-05-05T11:46:10.303Z,4.40
2019-05-05T11:48:40.059Z,4.42
2019-05-05T11:51:08.380Z,5.37
2019-05-05T11:53:36.661Z,4.55
2019-05-05T11:56:04.979Z,4.15
2019-05-05T11:58:34.091Z,3.52
2019-05-05T12:01:03.715Z,3.98
2019-05-05T12:03:34.003Z,3.70
2019-05-05T12:06:03.998Z,4.10
2019-05-05T12:08:34.311Z,4.47
2019-05-05T12:11:04.636Z,4.60
2019-05-05T12:13:33.394Z,4.35
2019-05-05T12:16:04.596Z,4.53
2019-05-05T12:18:34.270Z,4.90
2019-05-05T12:21:04.860Z,5.05
2019-05-05T12:23:33.992Z,5.70
2019-05-05T12:26:24.327Z,5.05
2019-05-05T12:28:54.717Z,4.85
2019-05-05T12:31:24.921Z,3.95
2019-05-05T12:33:54.751Z,4.47
2019-05-05T12:36:23.717Z,4.30
2019-05-05T12:38:54.390Z,4.15
2019-05-05T12:41:23.881Z,4.40
2019-05-05T12:43:54.599Z,4.72
2019-05-05T12:46:36.031Z,5.10
2019-05-05T12:49:08.692Z,4.90
2019-05-05T12:51:36.970Z,5.42
2019-05-05T12:54:05.359Z,4.78
2019-05-05T12:56:34.116Z,4.85
2019-05-05T12:59:04.153Z,4.67
2019-05-05T13:01:37.363Z,4.55
2019-05-05T13:04:05.651Z,4.45
2019-05-05T13:06:34.600Z,4.75
2019-05-05T13:09:03.021Z,5.53
2019-05-05T13:11:31.390Z,5.08
2019-05-05T13:13:59.697Z,4.45
2019-05-05T13:16:28.062Z,5.00
2019-05-05T13:18:56.375Z,4.53
2019-05-05T13:21:35.298Z,5.30
2019-05-05T13:24:05.251Z,4.40
2019-05-05T13:26:37.589Z,4.22
2019-05-05T13:29:05.910Z,4.50
2019-05-05T13:31:34.198Z,4.90
2019-05-05T13:34:04.435Z,5.62
2019-05-05T13:36:33.451Z,5.08
2019-05-05T13:39:01.822Z,4.35
2019-05-05T13:41:30.108Z,4.65
2019-05-05T13:43:59.689Z,4.62
2019-05-05T13:46:33.939Z,4.58
2019-05-05T13:49:23.944Z,4.58
2019-05-05T13:51:53.911Z,5.08
2019-05-05T13:54:24.070Z,4.92
2019-05-05T13:56:52.028Z,4.37
2019-05-05T13:59:20.334Z,5.17
2019-05-05T14:01:48.615Z,4.45
2019-05-05T14:04:16.923Z,3.05
2019-05-05T14:06:46.339Z,3.22
2019-05-05T14:09:15.249Z,3.15
2019-05-05T14:11:44.521Z,3.80
2019-05-05T14:14:13.828Z,3.10
2019-05-05T14:16:44.453Z,3.67
2019-05-05T14:19:14.418Z,3.65
2019-05-05T14:21:44.395Z,4.22
2019-05-05T14:24:30.427Z,4.75
2019-05-05T14:26:58.718Z,4.47
2019-05-05T14:29:44.895Z,4.80
2019-05-05T14:32:14.816Z,3.95
2019-05-05T14:34:54.662Z,4.28
2019-05-05T14:37:34.021Z,4.33
2019-05-05T14:40:04.618Z,4.50
2019-05-05T14:42:34.186Z,4.25
2019-05-05T14:45:04.617Z,4.22
2019-05-05T14:47:33.589Z,3.72
2019-05-05T14:50:04.556Z,3.77
2019-05-05T14:52:32.062Z,4.10
2019-05-05T14:55:00.361Z,4.08
2019-05-05T14:57:28.661Z,4.05
2019-05-05T14:59:57.247Z,4.30
2019-05-05T15:02:25.894Z,4.40
2019-05-05T15:04:55.868Z,4.50
2019-05-05T15:07:34.970Z,4.53
2019-05-05T15:10:23.960Z,4.67
2019-05-05T15:12:53.848Z,4.60
2019-05-05T15:15:23.557Z,4.72
2019-05-05T15:17:53.630Z,4.30
2019-05-05T15:20:24.308Z,4.30
2019-05-05T15:22:54.002Z,4.60
2019-05-05T15:25:23.591Z,4.67
2019-05-05T15:27:54.064Z,4.00
2019-05-05T15:30:24.946Z,4.30
2019-05-05T15:32:54.012Z,5.05
2019-05-05T15:35:22.515Z,4.78
2019-05-05T15:37:50.788Z,4.95
2019-05-05T15:40:19.244Z,4.92
2019-05-05T15:42:47.534Z,5.80
2019-05-05T15:45:15.932Z,4.78
2019-05-05T15:47:44.221Z,4.58
2019-05-05T15:50:13.785Z,4.42
2019-05-05T15:52:44.019Z,4.85
2019-05-05T15:55:14.084Z,4.60
2019-05-05T15:57:44.305Z,4.10
2019-05-05T16:00:14.073Z,4.78
2019-05-05T16:02:44.202Z,4.40
2019-05-05T16:05:13.731Z,4.67
2019-05-05T16:07:43.927Z,4.30
2019-05-05T16:10:13.707Z,4.90
2019-05-05T16:12:42.048Z,6.00
2019-05-05T16:15:13.784Z,4.60
2019-05-05T16:17:43.950Z,4.87
2019-05-05T16:20:14.028Z,4.35
2019-05-05T16:22:58.935Z,3.90
2019-05-05T16:25:28.547Z,4.08
2019-05-05T16:27:56.829Z,3.90
2019-05-05T16:30:25.544Z,4.67
2019-05-05T16:32:55.164Z,4.45
2019-05-05T16:35:23.806Z,4.35
2019-05-05T16:37:52.087Z,4.12
2019-05-05T16:40:23.158Z,4.08
2019-05-05T16:42:50.529Z,3.80
2019-05-05T16:45:20.596Z,4.85
2019-05-05T16:47:48.935Z,4.35
2019-05-05T16:50:17.209Z,3.60
2019-05-05T16:52:47.199Z,4.05
2019-05-05T16:55:34.483Z,3.77
2019-05-05T16:58:04.071Z,3.90
2019-05-05T17:00:34.493Z,4.20
2019-05-05T17:03:04.260Z,4.78
2019-05-05T17:05:34.614Z,4.37
2019-05-05T17:08:04.518Z,3.52
2019-05-05T17:10:34.231Z,4.00
2019-05-05T17:13:04.305Z,4.47
2019-05-05T17:15:35.482Z,4.28
2019-05-05T17:18:32.606Z,5.00
2019-05-05T17:20:53.620Z,4.70
2019-05-05T17:23:23.749Z,4.45
2019-05-05T17:25:53.786Z,5.03
2019-05-05T17:28:23.848Z,4.83
2019-05-05T17:30:54.206Z,5.47
2019-05-05T17:33:24.152Z,5.85
2019-05-05T17:35:53.938Z,5.83
2019-05-05T17:38:24.312Z,5.70
2019-05-05T17:40:54.256Z,6.05
2019-05-05T17:43:44.684Z,8.05
2019-05-05T17:46:16.833Z,5.22
2019-05-05T17:48:46.804Z,4.75
2019-05-05T17:51:19.688Z,5.45
2019-05-05T17:56:33.741Z,5.35
2019-05-05T17:59:03.449Z,6.40
2019-05-05T18:01:33.649Z,4.28
2019-05-05T18:04:03.992Z,4.05
2019-05-05T18:06:39.200Z,3.98
2019-05-05T18:09:10.347Z,4.33
2019-05-05T18:11:45.835Z,4.25
2019-05-05T18:14:27.711Z,4.33
2019-05-05T18:16:56.001Z,3.80
2019-05-05T18:19:25.127Z,3.70
2019-05-05T18:21:54.724Z,4.50
2019-05-05T18:24:24.317Z,4.30
2019-05-05T18:27:32.137Z,4.17
2019-05-05T18:30:00.449Z,3.85
2019-05-05T18:32:28.728Z,4.72
2019-05-05T18:34:57.046Z,4.00
2019-05-05T18:37:25.331Z,4.00
2019-05-05T18:39:54.588Z,3.65
2019-05-05T18:42:24.789Z,4.42
2019-05-05T18:44:57.394Z,30.50
2019-05-05T18:47:25.772Z,15.30
2019-05-05T18:49:54.201Z,4.90
2019-05-05T18:52:24.327Z,4.85
2019-05-05T18:54:54.444Z,4.87
2019-05-05T18:57:24.508Z,4.45
2019-05-05T18:59:54.185Z,4.42
2019-05-05T19:02:34.682Z,4.87
2019-05-05T19:05:17.074Z,4.80
2019-05-05T19:07:55.593Z,4.20
2019-05-05T19:10:19.973Z,4.30
2019-05-05T19:12:50.749Z,4.72
2019-05-05T19:15:18.389Z,4.28
2019-05-05T19:17:46.668Z,4.53
2019-05-05T19:20:19.446Z,5.15
2019-05-05T19:25:16.484Z,4.40
2019-05-05T19:27:46.001Z,4.67
2019-05-05T19:30:15.669Z,4.83
2019-05-05T19:32:43.941Z,4.92
2019-05-05T19:35:12.330Z,5.53
2019-05-05T19:37:40.604Z,4.95
2019-05-05T19:40:09.193Z,5.25
2019-05-05T19:42:37.792Z,5.30
2019-05-05T19:45:07.292Z,5.53
2019-05-05T19:47:35.575Z,6.03
2019-05-05T19:50:08.063Z,5.87
2019-05-05T19:52:36.343Z,5.40
2019-05-05T19:55:05.908Z,5.20
2019-05-05T19:57:36.109Z,6.05
2019-05-05T20:00:05.255Z,6.30
2019-05-05T20:02:34.128Z,6.25
2019-05-05T20:05:04.283Z,6.45
2019-05-05T20:07:32.447Z,6.20
2019-05-05T20:10:01.080Z,6.33
2019-05-05T20:12:29.358Z,5.80
2019-05-05T20:14:58.403Z,6.62
2019-05-05T20:17:37.407Z,6.50
2019-05-05T20:20:06.816Z,6.00
2019-05-05T20:22:35.142Z,6.15
2019-05-05T20:25:04.965Z,5.80
2019-05-05T20:27:34.342Z,5.80
2019-05-05T20:30:06.195Z,5.97
2019-05-05T20:32:35.495Z,6.03
2019-05-05T20:35:08.562Z,6.67
2019-05-05T20:37:44.283Z,6.65
2019-05-05T20:40:14.777Z,6.87
2019-05-05T20:42:44.795Z,6.25
2019-05-05T20:45:14.788Z,6.40
2019-05-05T20:47:44.005Z,6.05
2019-05-05T20:50:12.605Z,6.08
2019-05-05T20:52:40.977Z,5.60
2019-05-05T20:55:09.256Z,5.03
2019-05-05T20:57:37.559Z,5.53
2019-05-05T21:00:06.301Z,4.80
2019-05-05T21:02:34.607Z,5.22
2019-05-05T21:05:04.188Z,4.45
2019-05-05T21:07:34.648Z,4.60
2019-05-05T21:10:04.126Z,5.28
2019-05-05T21:12:41.682Z,4.75
2019-05-05T21:15:04.865Z,5.15
2019-05-05T21:17:34.188Z,5.10
2019-05-05T21:20:04.208Z,6.42
2019-05-05T21:22:35.032Z,5.15
2019-05-05T21:25:05.008Z,5.03
2019-05-05T21:27:34.085Z,5.12
2019-05-05T21:30:04.035Z,4.90
2019-05-05T21:32:34.035Z,5.30
2019-05-05T21:35:02.468Z,5.20
2019-05-05T21:37:30.767Z,5.60
2019-05-05T21:39:59.049Z,5.35
2019-05-05T21:42:28.149Z,4.85
2019-05-05T21:44:56.431Z,5.42
2019-05-05T21:47:24.731Z,5.55
2019-05-05T21:49:54.265Z,5.47
2019-05-05T21:52:36.059Z,5.33
2019-05-05T21:55:07.614Z,5.35
2019-05-05T21:57:37.552Z,5.28
2019-05-05T22:00:08.332Z,5.25
2019-05-05T22:02:36.633Z,5.17
2019-05-05T22:05:06.271Z,5.47
2019-05-05T22:07:34.574Z,5.70
2019-05-05T22:10:04.484Z,5.37
2019-05-05T22:12:33.378Z,5.03
2019-05-05T22:15:04.303Z,6.10
2019-05-05T22:17:33.646Z,5.85
2019-05-05T22:20:14.352Z,6.28
2019-05-05T22:22:44.957Z,5.72
2019-05-05T22:25:14.141Z,6.25
2019-05-05T22:27:44.131Z,6.65
2019-05-05T22:30:14.163Z,6.67
2019-05-05T22:32:44.140Z,7.08
2019-05-05T22:35:14.008Z,7.10
2019-05-05T22:37:43.918Z,6.65
2019-05-05T22:40:20.641Z,6.58
2019-05-05T22:42:48.916Z,6.55
2019-05-05T22:45:17.374Z,6.40
2019-05-05T22:47:45.633Z,7.67
2019-05-05T22:50:14.721Z,8.28
2019-05-05T22:52:44.662Z,9.45
2019-05-05T22:55:13.947Z,8.70
2019-05-05T22:57:42.183Z,6.97
2019-05-05T23:00:26.663Z,6.90
2019-05-05T23:02:51.970Z,7.12
2019-05-05T23:05:23.958Z,6.78
2019-05-05T23:07:51.903Z,7.05
2019-05-05T23:10:20.200Z,6.47
2019-05-05T23:12:48.488Z,7.17
2019-05-05T23:15:17.132Z,7.15
2019-05-05T23:17:47.043Z,6.70
2019-05-05T23:20:53.947Z,7.95
2019-05-05T23:23:42.172Z,7.33
2019-05-05T23:26:14.968Z,7.28
2019-05-05T23:31:15.986Z,7.37
2019-05-05T23:33:43.952Z,8.15
2019-05-05T23:36:14.658Z,8.65
2019-05-05T23:38:44.665Z,8.45
2019-05-05T23:41:14.466Z,8.35
2019-05-05T23:43:42.388Z,8.05
2019-05-05T23:46:10.685Z,8.53
2019-05-05T23:48:38.973Z,8.35
2019-05-05T23:51:07.289Z,8.40
2019-05-05T23:53:35.579Z,9.00
2019-05-05T23:56:04.067Z,8.73
2019-05-05T23:58:34.632Z,8.33
